createdAt,value
2023-10-23T00:01:37.509Z,20.01
2023-10-23T00:04:05.288Z,20.04
2023-10-23T00:06:32.984Z,20.00
2023-10-23T00:09:00.583Z,20.00
2023-10-23T00:11:29.587Z,19.99
2023-10-23T00:13:57.068Z,20.02
2023-10-23T00:16:24.279Z,20.00
2023-10-23T00:18:52.663Z,20.01
2023-10-23T00:21:20.228Z,20.01
2023-10-23T00:23:47.465Z,19.98
2023-10-23T00:26:14.740Z,20.00
2023-10-23T00:28:41.904Z,20.00
2023-10-23T00:31:09.189Z,19.97
2023-10-23T00:33:36.583Z,19.98
2023-10-23T00:36:03.850Z,19.99
2023-10-23T00:38:31.355Z,19.98
2023-10-23T00:40:58.594Z,19.96
2023-10-23T00:43:26.290Z,19.97
2023-10-23T00:45:57.612Z,19.99
2023-10-23T00:48:27.112Z,19.98
2023-10-23T00:51:00.024Z,19.95
2023-10-23T00:53:29.363Z,19.93
2023-10-23T00:55:58.504Z,19.95
2023-10-23T00:58:26.783Z,19.95
2023-10-23T01:00:56.507Z,19.92
2023-10-23T01:03:23.902Z,19.95
2023-10-23T01:05:51.452Z,19.94
2023-10-23T01:08:18.831Z,19.94
2023-10-23T01:10:46.810Z,19.92
2023-10-23T01:13:14.222Z,19.96
2023-10-23T01:15:41.471Z,19.92
2023-10-23T01:18:08.799Z,19.91
2023-10-23T01:20:36.005Z,19.92
2023-10-23T01:23:04.186Z,19.95
2023-10-23T01:25:31.797Z,19.94
2023-10-23T01:27:59.015Z,19.93
2023-10-23T01:30:26.248Z,19.92
2023-10-23T01:32:53.541Z,19.92
2023-10-23T01:35:20.765Z,19.93
2023-10-23T01:37:48.715Z,19.93
2023-10-23T01:40:16.219Z,19.90
2023-10-23T01:42:44.469Z,19.88
2023-10-23T01:45:12.346Z,19.88
2023-10-23T01:47:39.671Z,19.91
2023-10-23T01:50:07.415Z,19.91
2023-10-23T01:52:34.640Z,19.88
2023-10-23T01:55:01.963Z,19.88
2023-10-23T01:57:29.314Z,19.89
2023-10-23T02:00:04.573Z,19.87
2023-10-23T02:02:32.635Z,19.88
2023-10-23T02:05:00.418Z,19.86
2023-10-23T02:07:28.294Z,19.88
2023-10-23T02:09:57.637Z,19.87
2023-10-23T02:12:25.376Z,19.87
2023-10-23T02:14:53.984Z,19.88
2023-10-23T02:17:21.986Z,19.88
2023-10-23T02:19:49.319Z,19.87
2023-10-23T02:22:17.978Z,19.89
2023-10-23T02:24:45.726Z,19.85
2023-10-23T02:27:13.527Z,19.85
2023-10-23T02:29:43.708Z,19.85
2023-10-23T02:32:10.907Z,19.83
2023-10-23T02:34:38.827Z,19.86
2023-10-23T02:37:06.321Z,19.82
2023-10-23T02:39:33.724Z,19.83
2023-10-23T02:42:01.166Z,19.82
2023-10-23T02:44:28.435Z,19.84
2023-10-23T02:46:55.675Z,19.82
2023-10-23T02:49:24.323Z,19.84
2023-10-23T02:51:51.633Z,19.84
2023-10-23T02:54:19.033Z,19.81
2023-10-23T02:56:46.307Z,19.80
2023-10-23T02:59:13.600Z,19.83
2023-10-23T03:01:41.077Z,19.82
2023-10-23T03:04:08.472Z,19.81
2023-10-23T03:06:35.786Z,19.81
2023-10-23T03:09:04.313Z,19.79
2023-10-23T03:11:32.293Z,19.80
2023-10-23T03:14:00.235Z,19.78
2023-10-23T03:16:27.698Z,19.78
2023-10-23T03:18:55.272Z,19.75
2023-10-23T03:21:23.182Z,19.76
2023-10-23T03:23:50.992Z,19.77
2023-10-23T03:26:18.205Z,19.76
2023-10-23T03:28:45.390Z,19.77
2023-10-23T03:31:12.604Z,19.76
2023-10-23T03:33:44.147Z,19.78
2023-10-23T03:36:11.340Z,19.74
2023-10-23T03:38:38.704Z,19.76
2023-10-23T03:41:05.947Z,19.75
2023-10-23T03:43:33.658Z,19.75
2023-10-23T03:46:04.548Z,19.74
2023-10-23T03:48:34.160Z,19.75
2023-10-23T03:51:01.781Z,19.73
2023-10-23T03:53:29.053Z,19.73
2023-10-23T03:55:56.360Z,19.71
2023-10-23T03:58:23.630Z,19.75
2023-10-23T04:00:54.653Z,19.73
2023-10-23T04:03:22.539Z,19.71
2023-10-23T04:05:49.819Z,19.73
2023-10-23T04:08:17.098Z,19.75
2023-10-23T04:10:48.980Z,19.71
2023-10-23T04:13:16.643Z,19.72
2023-10-23T04:15:53.638Z,19.71
2023-10-23T04:18:21.006Z,19.70
2023-10-23T04:20:48.243Z,19.68
2023-10-23T04:23:15.439Z,19.69
2023-10-23T04:25:42.602Z,19.72
2023-10-23T04:28:09.820Z,19.68
2023-10-23T04:30:37.682Z,19.73
2023-10-23T04:33:04.984Z,19.68
2023-10-23T04:35:33.386Z,19.69
2023-10-23T04:38:00.552Z,19.66
2023-10-23T04:40:27.724Z,19.68
2023-10-23T04:42:54.954Z,19.66
2023-10-23T04:45:22.175Z,19.66
2023-10-23T04:47:50.644Z,19.66
2023-10-23T04:50:20.618Z,19.65
2023-10-23T04:52:47.822Z,19.64
2023-10-23T04:55:15.120Z,19.67
2023-10-23T04:57:42.379Z,19.68
2023-10-23T05:00:10.339Z,19.63
2023-10-23T05:02:37.522Z,19.63
2023-10-23T05:05:07.395Z,19.62
2023-10-23T05:07:34.567Z,19.63
2023-10-23T05:10:05.272Z,19.64
2023-10-23T05:12:32.659Z,19.63
2023-10-23T05:14:59.846Z,19.60
2023-10-23T05:17:27.031Z,19.63
2023-10-23T05:19:54.218Z,19.61
2023-10-23T05:22:21.390Z,19.64
2023-10-23T05:24:49.083Z,19.64
2023-10-23T05:27:17.110Z,19.63
2023-10-23T05:29:44.335Z,19.61
2023-10-23T05:32:11.759Z,19.63
2023-10-23T05:34:38.958Z,19.59
2023-10-23T05:37:06.191Z,19.57
2023-10-23T05:39:33.432Z,19.60
2023-10-23T05:42:00.636Z,19.60
2023-10-23T05:44:29.381Z,19.60
2023-10-23T05:46:56.760Z,19.58
2023-10-23T05:49:23.992Z,19.62
2023-10-23T05:51:51.257Z,19.60
2023-10-23T05:54:18.464Z,19.61
2023-10-23T05:56:45.659Z,19.60
2023-10-23T05:59:12.836Z,19.59
2023-10-23T06:01:40.117Z,19.59
2023-10-23T06:04:07.445Z,19.59
2023-10-23T06:06:35.090Z,19.55
2023-10-23T06:09:02.458Z,19.52
2023-10-23T06:11:29.637Z,19.57
2023-10-23T06:13:56.820Z,19.54
2023-10-23T06:16:24.090Z,19.57
2023-10-23T06:18:51.376Z,19.51
2023-10-23T06:21:19.389Z,19.53
2023-10-23T06:23:46.570Z,19.53
2023-10-23T06:26:13.776Z,19.52
2023-10-23T06:28:40.973Z,19.55
2023-10-23T06:31:09.334Z,19.54
2023-10-23T06:33:40.011Z,19.52
2023-10-23T06:36:08.932Z,19.54
2023-10-23T06:38:39.238Z,19.56
2023-10-23T06:41:07.206Z,19.55
2023-10-23T06:43:35.454Z,19.55
2023-10-23T06:46:03.268Z,19.52
2023-10-23T06:48:33.595Z,19.50
2023-10-23T06:51:01.230Z,19.51
2023-10-23T06:53:28.634Z,19.54
2023-10-23T06:55:56.531Z,19.53
2023-10-23T06:58:23.790Z,19.54
2023-10-23T07:00:51.179Z,19.50
2023-10-23T07:03:18.590Z,19.53
2023-10-23T07:05:45.994Z,19.53
2023-10-23T07:08:14.300Z,19.53
2023-10-23T07:10:41.553Z,19.52
2023-10-23T07:13:21.381Z,19.51
2023-10-23T07:15:52.943Z,19.54
2023-10-23T07:18:20.809Z,19.57
2023-10-23T07:20:56.331Z,19.55
2023-10-23T07:23:23.769Z,19.56
2023-10-23T07:26:01.265Z,19.50
2023-10-23T07:28:28.479Z,19.53
2023-10-23T07:30:55.641Z,19.52
2023-10-23T07:33:23.234Z,19.53
2023-10-23T07:35:59.286Z,19.57
2023-10-23T07:38:26.503Z,19.57
2023-10-23T07:40:53.773Z,19.53
2023-10-23T07:43:20.964Z,19.54
2023-10-23T07:45:52.226Z,19.51
2023-10-23T07:48:28.409Z,19.52
2023-10-23T07:50:59.205Z,19.54
2023-10-23T07:53:26.851Z,19.54
2023-10-23T07:55:54.249Z,19.52
2023-10-23T07:58:21.522Z,19.52
2023-10-23T08:00:49.214Z,19.54
2023-10-23T08:03:16.691Z,19.50
2023-10-23T08:05:44.139Z,19.50
2023-10-23T08:08:11.336Z,19.55
2023-10-23T08:10:38.546Z,19.54
2023-10-23T08:13:05.742Z,19.53
2023-10-23T08:15:33.084Z,19.56
2023-10-23T08:18:02.085Z,19.52
2023-10-23T08:20:29.277Z,19.50
2023-10-23T08:22:56.790Z,19.54
2023-10-23T08:25:24.104Z,19.51
2023-10-23T08:27:51.407Z,19.55
2023-10-23T08:30:18.887Z,19.58
2023-10-23T08:32:53.009Z,19.55
2023-10-23T08:35:20.669Z,19.54
2023-10-23T08:37:48.000Z,19.56
2023-10-23T08:40:15.417Z,19.55
2023-10-23T08:42:42.656Z,19.57
2023-10-23T08:45:10.171Z,19.57
2023-10-23T08:47:37.404Z,19.55
2023-10-23T08:50:04.836Z,19.56
2023-10-23T08:52:36.250Z,19.59
2023-10-23T08:55:04.770Z,19.61
2023-10-23T08:57:31.999Z,19.61
2023-10-23T08:59:59.168Z,19.69
2023-10-23T09:02:26.442Z,19.72
2023-10-23T09:04:53.732Z,19.72
2023-10-23T09:07:21.168Z,19.70
2023-10-23T09:09:48.457Z,19.73
2023-10-23T09:12:34.338Z,19.72
2023-10-23T09:15:17.972Z,19.67
2023-10-23T09:17:45.951Z,19.72
2023-10-23T09:20:28.247Z,19.82
2023-10-23T09:22:56.836Z,19.75
2023-10-23T09:25:25.551Z,19.75
2023-10-23T09:27:53.161Z,19.76
2023-10-23T09:30:24.597Z,19.86
2023-10-23T09:32:54.256Z,19.90
2023-10-23T09:35:25.749Z,19.91
2023-10-23T09:37:52.977Z,19.95
2023-10-23T09:40:20.274Z,19.96
2023-10-23T09:42:47.563Z,19.99
2023-10-23T09:45:16.360Z,19.97
2023-10-23T09:47:43.724Z,20.01
2023-10-23T09:50:11.714Z,19.99
2023-10-23T09:52:39.055Z,19.94
2023-10-23T09:55:08.253Z,19.94
2023-10-23T09:57:36.752Z,19.93
2023-10-23T10:00:14.260Z,19.95
2023-10-23T10:02:52.953Z,19.88
2023-10-23T10:05:28.644Z,19.95
2023-10-23T10:08:03.790Z,19.89
2023-10-23T10:10:34.055Z,19.91
2023-10-23T10:13:01.971Z,19.90
2023-10-23T10:15:31.055Z,19.98
2023-10-23T10:17:58.230Z,19.93
2023-10-23T10:20:25.845Z,19.94
2023-10-23T10:23:11.330Z,19.93
2023-10-23T10:25:39.544Z,19.92
2023-10-23T10:28:08.524Z,19.94
2023-10-23T10:30:50.732Z,19.90
2023-10-23T10:34:22.015Z,19.97
2023-10-23T10:36:12.491Z,20.02
2023-10-23T10:38:39.705Z,20.05
2023-10-23T10:41:27.155Z,20.08
2023-10-23T10:43:54.894Z,20.07
2023-10-23T10:46:23.530Z,20.09
2023-10-23T10:48:52.556Z,20.08
2023-10-23T10:51:23.107Z,20.09
2023-10-23T10:53:56.619Z,20.10
2023-10-23T10:56:23.828Z,20.10
2023-10-23T10:58:51.024Z,20.10
2023-10-23T11:01:23.194Z,20.11
2023-10-23T11:03:50.690Z,20.10
2023-10-23T11:06:17.987Z,20.11
2023-10-23T11:08:46.907Z,20.10
2023-10-23T11:11:14.102Z,20.09
2023-10-23T11:13:41.537Z,20.12
2023-10-23T11:16:08.943Z,20.12
2023-10-23T11:18:36.303Z,20.12
2023-10-23T11:21:03.889Z,20.14
2023-10-23T11:23:32.106Z,20.14
2023-10-23T11:25:59.631Z,20.15
2023-10-23T11:28:27.064Z,20.16
2023-10-23T11:30:58.819Z,20.16
2023-10-23T11:33:26.132Z,20.16
2023-10-23T11:35:54.032Z,20.14
2023-10-23T11:38:23.905Z,20.16
2023-10-23T11:40:54.286Z,20.17
2023-10-23T11:43:21.657Z,20.15
2023-10-23T11:45:49.344Z,20.15
2023-10-23T11:48:16.862Z,20.14
2023-10-23T11:50:44.237Z,20.14
2023-10-23T11:53:11.527Z,20.13
2023-10-23T11:55:39.425Z,20.13
2023-10-23T11:58:06.742Z,20.13
2023-10-23T12:00:35.313Z,20.13
2023-10-23T12:03:02.661Z,20.16
2023-10-23T12:05:29.913Z,20.15
2023-10-23T12:07:57.827Z,20.16
2023-10-23T12:10:26.437Z,20.13
2023-10-23T12:12:54.487Z,20.15
2023-10-23T12:15:22.406Z,20.16
2023-10-23T12:17:49.641Z,20.18
2023-10-23T12:20:17.977Z,20.16
2023-10-23T12:22:46.975Z,20.16
2023-10-23T12:25:15.356Z,20.15
2023-10-23T12:27:42.890Z,20.16
2023-10-23T12:30:12.771Z,20.16
2023-10-23T12:33:15.751Z,20.15
2023-10-23T12:35:31.340Z,20.15
2023-10-23T12:37:58.674Z,20.14
2023-10-23T12:40:30.304Z,20.13
2023-10-23T12:42:59.849Z,20.15
2023-10-23T12:45:27.209Z,20.13
2023-10-23T12:47:54.508Z,20.15
2023-10-23T12:50:21.742Z,20.17
2023-10-23T12:52:49.650Z,20.15
2023-10-23T12:55:17.264Z,20.16
2023-10-23T12:57:44.740Z,20.13
2023-10-23T13:00:14.864Z,20.13
2023-10-23T13:02:43.429Z,20.15
2023-10-23T13:05:11.173Z,20.14
2023-10-23T13:07:38.724Z,20.13
2023-10-23T13:10:06.403Z,20.15
2023-10-23T13:12:34.942Z,20.13
2023-10-23T13:15:02.318Z,20.13
2023-10-23T13:17:29.641Z,20.13
2023-10-23T13:19:56.996Z,20.13
2023-10-23T13:22:24.504Z,20.12
2023-10-23T13:24:51.740Z,20.13
2023-10-23T13:27:19.341Z,20.14
2023-10-23T13:29:46.609Z,20.12
2023-10-23T13:32:15.544Z,20.12
2023-10-23T13:34:43.313Z,20.12
2023-10-23T13:37:12.621Z,20.13
2023-10-23T13:39:39.863Z,20.12
2023-10-23T13:42:07.089Z,20.10
2023-10-23T13:44:34.391Z,20.11
2023-10-23T13:47:01.866Z,20.03
2023-10-23T13:49:29.639Z,20.05
2023-10-23T13:51:57.366Z,20.07
2023-10-23T13:54:24.824Z,20.06
2023-10-23T13:56:52.005Z,20.09
2023-10-23T13:59:19.208Z,20.10
2023-10-23T14:01:46.508Z,20.07
2023-10-23T14:04:14.173Z,20.03
2023-10-23T14:06:41.830Z,20.04
2023-10-23T14:09:41.124Z,20.05
2023-10-23T14:12:00.226Z,20.06
2023-10-23T14:14:29.630Z,20.06
2023-10-23T14:16:59.501Z,20.08
2023-10-23T14:19:42.633Z,20.06
2023-10-23T14:22:14.177Z,20.07
2023-10-23T14:24:41.881Z,20.06
2023-10-23T14:27:10.328Z,20.05
2023-10-23T14:29:38.217Z,20.09
2023-10-23T14:32:06.329Z,20.07
2023-10-23T14:34:33.698Z,20.05
2023-10-23T14:37:01.255Z,20.05
2023-10-23T14:39:29.082Z,20.05
2023-10-23T14:41:56.730Z,20.07
2023-10-23T14:44:27.172Z,20.05
2023-10-23T14:46:54.492Z,20.04
2023-10-23T14:49:24.493Z,20.03
2023-10-23T14:51:52.632Z,20.00
2023-10-23T14:54:19.908Z,19.99
2023-10-23T14:56:48.190Z,20.00
2023-10-23T14:59:16.223Z,20.00
2023-10-23T15:01:43.700Z,19.99
2023-10-23T15:04:11.135Z,19.99
2023-10-23T15:06:38.415Z,19.99
2023-10-23T15:09:06.598Z,19.98
2023-10-23T15:11:34.024Z,19.98
2023-10-23T15:14:01.208Z,19.98
2023-10-23T15:16:30.194Z,19.95
2023-10-23T15:18:57.413Z,19.97
2023-10-23T15:21:24.642Z,19.98
2023-10-23T15:23:51.881Z,19.96
2023-10-23T15:26:19.072Z,19.95
2023-10-23T15:28:46.340Z,19.96
2023-10-23T15:31:14.331Z,19.95
2023-10-23T15:33:41.622Z,19.97
2023-10-23T15:36:08.968Z,19.99
2023-10-23T15:38:36.563Z,19.96
2023-10-23T15:41:12.103Z,19.94
2023-10-23T15:43:40.371Z,19.94
2023-10-23T15:46:13.308Z,19.94
2023-10-23T15:48:41.391Z,19.95
2023-10-23T15:51:08.784Z,19.95
2023-10-23T15:53:36.183Z,19.95
2023-10-23T15:56:04.076Z,19.91
2023-10-23T15:58:32.975Z,19.92
2023-10-23T16:01:01.525Z,19.91
2023-10-23T16:03:28.850Z,19.92
2023-10-23T16:05:56.132Z,19.89
2023-10-23T16:08:23.323Z,19.88
2023-10-23T16:10:52.577Z,19.89
2023-10-23T16:13:20.152Z,19.90
2023-10-23T16:15:48.037Z,19.89
2023-10-23T16:18:20.352Z,19.90
2023-10-23T16:20:51.163Z,19.90
2023-10-23T16:23:19.049Z,19.87
2023-10-23T16:25:46.355Z,19.87
2023-10-23T16:28:13.968Z,19.87
2023-10-23T18:20:08.124Z,19.68
2023-10-23T18:22:35.386Z,19.68
2023-10-23T18:25:03.456Z,19.70
2023-10-23T18:27:31.425Z,19.71
2023-10-23T18:29:58.615Z,19.70
2023-10-23T18:32:25.824Z,19.69
2023-10-23T18:34:54.543Z,19.70
2023-10-23T18:37:21.822Z,19.67
2023-10-23T18:39:49.087Z,19.67
2023-10-23T18:42:16.418Z,19.68
2023-10-23T18:44:44.664Z,19.67
2023-10-23T18:47:12.250Z,19.69
2023-10-23T18:49:39.825Z,19.67
2023-10-23T18:52:07.247Z,19.67
2023-10-23T18:54:37.652Z,19.66
2023-10-23T18:57:04.841Z,19.67
2023-10-23T18:59:32.042Z,19.65
2023-10-23T19:01:59.605Z,19.63
2023-10-23T19:04:26.851Z,19.65
2023-10-23T19:06:54.084Z,19.66
2023-10-23T19:09:21.323Z,19.66
2023-10-23T19:11:48.572Z,19.66
2023-10-23T19:14:15.834Z,19.66
2023-10-23T19:16:43.095Z,19.63
2023-10-23T19:19:10.406Z,19.63
2023-10-23T19:21:37.641Z,19.63
2023-10-23T19:24:11.390Z,19.65
2023-10-23T19:26:42.475Z,19.61
2023-10-23T19:29:09.662Z,19.64
2023-10-23T19:31:37.208Z,19.65
2023-10-23T19:34:04.701Z,19.61
2023-10-23T19:36:33.807Z,19.61
2023-10-23T19:39:02.440Z,19.63
2023-10-23T19:41:44.883Z,19.64
2023-10-23T19:44:12.655Z,19.60
2023-10-23T19:46:40.171Z,19.60
2023-10-23T19:49:08.224Z,19.59
2023-10-23T19:51:35.839Z,19.59
2023-10-23T19:54:03.480Z,19.59
2023-10-23T19:56:33.011Z,19.59
2023-10-23T19:59:00.747Z,19.61
2023-10-23T20:01:28.246Z,19.59
2023-10-23T20:03:55.898Z,19.59
2023-10-23T20:06:23.191Z,19.60
2023-10-23T20:08:50.425Z,19.59
2023-10-23T20:11:17.692Z,19.59
2023-10-23T20:13:45.044Z,19.59
2023-10-23T20:16:12.358Z,19.57
2023-10-23T20:18:40.496Z,19.57
2023-10-23T20:21:07.669Z,19.55
2023-10-23T20:23:34.965Z,19.56
2023-10-23T20:26:03.001Z,19.57
2023-10-23T20:28:30.255Z,19.58
2023-10-23T20:30:57.465Z,19.57
2023-10-23T20:33:24.714Z,19.60
2023-10-23T20:35:51.903Z,19.59
2023-10-23T20:38:19.089Z,19.54
2023-10-23T20:40:46.308Z,19.54
2023-10-23T20:43:13.737Z,19.54
2023-10-23T20:45:41.001Z,19.54
2023-10-23T20:48:08.286Z,19.55
2023-10-23T20:50:35.490Z,19.57
2023-10-23T20:53:02.675Z,19.53
2023-10-23T20:55:29.962Z,19.52
2023-10-23T20:57:57.175Z,19.52
2023-10-23T21:00:24.354Z,19.53
2023-10-23T21:02:52.307Z,19.55
2023-10-23T21:05:19.646Z,19.55
2023-10-23T21:07:46.819Z,19.53
2023-10-23T21:10:14.084Z,19.55
2023-10-23T21:12:41.365Z,19.52
2023-10-23T21:15:08.985Z,19.53
2023-10-23T21:17:36.280Z,19.54
2023-10-23T21:20:04.013Z,19.53
2023-10-23T21:22:31.433Z,19.50
2023-10-23T21:24:58.723Z,19.52
2023-10-23T21:27:25.939Z,19.52
2023-10-23T21:29:53.442Z,19.51
2023-10-23T21:32:20.618Z,19.53
2023-10-23T21:34:47.817Z,19.52
2023-10-23T21:37:15.018Z,19.53
2023-10-23T21:39:42.446Z,19.51
2023-10-23T21:42:09.678Z,19.51
2023-10-23T21:44:38.248Z,19.52
2023-10-23T21:47:06.088Z,19.52
2023-10-23T21:49:37.276Z,19.48
2023-10-23T21:52:05.695Z,19.48
2023-10-23T21:54:33.326Z,19.49
2023-10-23T21:57:20.936Z,19.46
2023-10-23T21:59:49.180Z,19.49
2023-10-23T22:02:16.680Z,19.48
2023-10-23T22:04:44.150Z,19.48
2023-10-23T22:07:11.568Z,19.46
2023-10-23T22:09:38.933Z,19.51
2023-10-23T22:12:06.554Z,19.47
2023-10-23T22:14:33.896Z,19.50
2023-10-23T22:17:01.163Z,19.48
2023-10-23T22:19:32.773Z,19.46
2023-10-23T22:22:00.663Z,19.46
2023-10-23T22:24:28.378Z,19.49
2023-10-23T22:26:55.584Z,19.43
2023-10-23T22:29:22.773Z,19.48
2023-10-23T22:31:49.967Z,19.44
2023-10-23T22:34:17.226Z,19.45
2023-10-23T22:36:44.453Z,19.47
2023-10-23T22:39:11.709Z,19.44
2023-10-23T22:41:41.032Z,19.45
2023-10-23T22:44:08.646Z,19.47
2023-10-23T22:46:35.917Z,19.45
2023-10-23T22:49:03.200Z,19.46
2023-10-23T22:51:30.615Z,19.43
2023-10-23T22:53:57.890Z,19.44
2023-10-23T22:56:26.215Z,19.45
2023-10-23T22:58:53.710Z,19.46
2023-10-23T23:01:21.988Z,19.46
2023-10-23T23:03:49.485Z,19.44
2023-10-23T23:06:18.483Z,19.43
2023-10-23T23:08:45.762Z,19.45
2023-10-23T23:11:13.443Z,19.44
2023-10-23T23:13:40.990Z,19.42
2023-10-23T23:16:08.530Z,19.45
2023-10-23T23:18:39.454Z,19.45
2023-10-23T23:21:08.448Z,19.44
2023-10-23T23:23:35.781Z,19.45
2023-10-23T23:26:03.028Z,19.44
2023-10-23T23:28:30.242Z,19.44
2023-10-23T23:30:57.828Z,19.41
2023-10-23T23:33:25.010Z,19.40
2023-10-23T23:35:53.756Z,19.41
2023-10-23T23:38:20.935Z,19.43
2023-10-23T23:40:48.166Z,19.41
2023-10-23T23:43:15.840Z,19.43
2023-10-23T23:45:43.087Z,19.43
2023-10-23T23:48:10.350Z,19.43
2023-10-23T23:50:37.581Z,19.41
2023-10-23T23:53:04.879Z,19.41
2023-10-23T23:55:32.202Z,19.41
2023-10-23T23:57:59.495Z,19.42
